createdAt,value
2023-03-17T00:00:23.605Z,55
2023-03-17T00:02:57.111Z,55
2023-03-17T00:05:27.529Z,54
2023-03-17T00:08:00.642Z,55
2023-03-17T00:10:33.050Z,54
2023-03-17T00:13:04.232Z,55
2023-03-17T00:15:34.485Z,56
2023-03-17T00:18:04.955Z,56
2023-03-17T00:20:36.739Z,55
2023-03-17T00:23:07.073Z,55
2023-03-17T00:25:37.482Z,56
2023-03-17T00:28:07.794Z,56
2023-03-17T00:30:38.199Z,57
2023-03-17T00:33:10.799Z,57
2023-03-17T00:35:41.854Z,57
2023-03-17T00:38:12.284Z,58
2023-03-17T00:43:15.762Z,58
2023-03-17T00:45:45.921Z,58
2023-03-17T00:48:15.984Z,58
2023-03-17T00:50:46.663Z,58
2023-03-17T00:53:16.647Z,58
2023-03-17T00:55:48.033Z,58
2023-03-17T00:58:18.516Z,58
2023-03-17T01:00:50.682Z,59
2023-03-17T01:03:20.936Z,59
2023-03-17T01:05:51.394Z,59
2023-03-17T01:08:25.131Z,59
2023-03-17T01:10:56.068Z,59
2023-03-17T01:13:26.281Z,60
2023-03-17T01:15:57.736Z,60
2023-03-17T01:18:29.948Z,60
2023-03-17T01:21:01.608Z,60
2023-03-17T01:23:33.422Z,60
2023-03-17T01:26:03.740Z,60
2023-03-17T01:28:34.712Z,60
2023-03-17T01:31:05.336Z,61
2023-03-17T01:33:36.295Z,61
2023-03-17T01:36:06.869Z,61
2023-03-17T01:38:38.378Z,61
2023-03-17T01:41:08.738Z,62
2023-03-17T01:43:39.213Z,63
2023-03-17T01:46:10.104Z,62
2023-03-17T01:48:41.407Z,62
2023-03-17T01:51:11.935Z,63
2023-03-17T01:53:41.338Z,64
2023-03-17T01:56:12.547Z,63
2023-03-17T01:58:44.232Z,63
2023-03-17T02:01:13.763Z,63
2023-03-17T02:03:44.632Z,63
2023-03-17T02:06:16.585Z,62
2023-03-17T02:08:47.684Z,62
2023-03-17T02:11:18.302Z,62
2023-03-17T02:13:49.389Z,62
2023-03-17T02:16:20.095Z,61
2023-03-17T02:18:53.929Z,62
2023-03-17T02:21:25.780Z,61
2023-03-17T02:23:58.069Z,62
2023-03-17T02:26:28.928Z,62
2023-03-17T02:29:00.245Z,63
2023-03-17T02:31:31.174Z,63
2023-03-17T02:34:01.160Z,63
2023-03-17T02:36:33.197Z,63
2023-03-17T02:39:03.868Z,62
2023-03-17T02:41:34.902Z,63
2023-03-17T02:44:05.569Z,62
2023-03-17T02:46:36.216Z,62
2023-03-17T02:49:11.406Z,62
2023-03-17T02:51:43.683Z,62
2023-03-17T02:54:13.649Z,62
2023-03-17T02:56:44.295Z,62
2023-03-17T02:59:14.811Z,61
2023-03-17T03:01:45.607Z,62
2023-03-17T03:04:16.108Z,61
2023-03-17T03:06:46.664Z,61
2023-03-17T03:09:18.537Z,61
2023-03-17T03:11:49.149Z,62
2023-03-17T03:14:19.707Z,62
2023-03-17T03:16:50.540Z,62
2023-03-17T03:19:23.215Z,63
2023-03-17T03:21:54.111Z,62
2023-03-17T03:24:26.677Z,62
2023-03-17T03:27:02.685Z,62
2023-03-17T03:29:34.476Z,62
2023-03-17T03:32:05.101Z,62
2023-03-17T03:34:34.393Z,62
2023-03-17T03:37:04.541Z,62
2023-03-17T03:39:36.876Z,63
2023-03-17T03:42:14.687Z,62
2023-03-17T03:44:45.881Z,63
2023-03-17T03:47:16.006Z,63
2023-03-17T03:49:47.188Z,63
2023-03-17T03:52:17.716Z,63
2023-03-17T03:54:46.514Z,63
2023-03-17T03:57:17.131Z,64
2023-03-17T03:59:48.100Z,65
2023-03-17T04:02:21.663Z,65
2023-03-17T04:04:52.853Z,64
2023-03-17T04:07:22.959Z,64
2023-03-17T04:09:53.692Z,63
2023-03-17T04:12:28.206Z,63
2023-03-17T04:14:58.980Z,63
2023-03-17T04:17:29.694Z,63
2023-03-17T04:20:00.224Z,63
2023-03-17T04:22:32.866Z,63
2023-03-17T04:25:03.884Z,63
2023-03-17T04:27:33.908Z,63
2023-03-17T04:30:04.566Z,63
2023-03-17T04:32:35.029Z,64
2023-03-17T04:35:05.316Z,63
2023-03-17T04:37:37.326Z,64
2023-03-17T04:40:08.415Z,64
2023-03-17T04:42:38.571Z,64
2023-03-17T04:45:09.313Z,64
2023-03-17T04:47:39.888Z,64
2023-03-17T04:50:10.814Z,63
2023-03-17T04:52:42.282Z,63
2023-03-17T04:55:12.843Z,63
2023-03-17T04:57:44.046Z,64
2023-03-17T05:00:16.296Z,64
2023-03-17T05:02:47.682Z,63
2023-03-17T05:05:18.218Z,64
2023-03-17T05:07:50.563Z,63
2023-03-17T05:10:21.240Z,63
2023-03-17T05:12:53.026Z,63
2023-03-17T05:15:23.145Z,63
2023-03-17T05:17:53.905Z,63
2023-03-17T05:20:24.971Z,62
2023-03-17T05:22:55.302Z,62
2023-03-17T05:25:24.113Z,62
2023-03-17T05:27:54.349Z,62
2023-03-17T05:30:24.826Z,62
2023-03-17T05:32:56.856Z,62
2023-03-17T05:35:36.923Z,62
2023-03-17T05:38:08.226Z,62
2023-03-17T05:40:41.492Z,62
2023-03-17T05:43:12.591Z,61
2023-03-17T05:45:43.044Z,60
2023-03-17T05:48:14.342Z,60
2023-03-17T05:50:46.633Z,59
2023-03-17T05:53:17.135Z,59
2023-03-17T05:55:47.740Z,59
2023-03-17T05:58:22.749Z,59
2023-03-17T06:00:56.244Z,58
2023-03-17T06:03:26.996Z,58
2023-03-17T06:05:58.881Z,58
2023-03-17T06:08:30.254Z,57
2023-03-17T06:11:03.897Z,57
2023-03-17T06:13:34.220Z,57
2023-03-17T06:16:05.089Z,57
2023-03-17T06:18:35.543Z,56
2023-03-17T06:21:06.138Z,56
2023-03-17T06:23:41.027Z,55
2023-03-17T06:26:14.545Z,55
2023-03-17T06:28:46.314Z,55
2023-03-17T06:31:18.208Z,55
2023-03-17T06:33:48.676Z,55
2023-03-17T06:36:19.573Z,55
2023-03-17T06:38:50.250Z,55
2023-03-17T06:41:20.889Z,55
2023-03-17T06:43:52.222Z,54
2023-03-17T06:46:22.100Z,54
2023-03-17T06:48:52.436Z,54
2023-03-17T06:51:23.232Z,54
2023-03-17T06:53:58.750Z,54
2023-03-17T06:56:30.623Z,54
2023-03-17T06:59:03.667Z,54
2023-03-17T07:01:36.212Z,54
2023-03-17T07:04:07.088Z,54
2023-03-17T07:06:41.530Z,53
2023-03-17T07:09:14.197Z,53
2023-03-17T07:11:44.642Z,53
2023-03-17T07:14:18.847Z,53
2023-03-17T07:16:50.293Z,53
2023-03-17T07:19:19.299Z,53
2023-03-17T07:21:49.901Z,53
2023-03-17T07:24:21.523Z,52
2023-03-17T07:26:53.422Z,52
2023-03-17T07:29:25.120Z,52
2023-03-17T07:31:55.563Z,52
2023-03-17T07:34:26.245Z,51
2023-03-17T07:36:57.254Z,52
2023-03-17T07:39:27.922Z,52
2023-03-17T07:41:59.206Z,51
2023-03-17T07:44:29.694Z,51
2023-03-17T07:47:00.183Z,52
2023-03-17T07:49:41.523Z,52
2023-03-17T07:52:12.573Z,52
2023-03-17T07:54:43.228Z,52
2023-03-17T07:57:13.228Z,52
2023-03-17T07:59:43.837Z,52
2023-03-17T08:02:16.197Z,52
2023-03-17T08:04:46.726Z,52
2023-03-17T08:07:17.433Z,52
2023-03-17T08:09:48.328Z,52
2023-03-17T08:12:18.965Z,52
2023-03-17T08:14:51.905Z,51
2023-03-17T08:17:29.500Z,50
2023-03-17T08:20:00.014Z,51
2023-03-17T08:22:31.724Z,51
2023-03-17T08:25:03.941Z,51
2023-03-17T08:27:37.647Z,50
2023-03-17T08:30:09.120Z,51
2023-03-17T08:32:39.936Z,50
2023-03-17T08:35:10.487Z,50
2023-03-17T08:37:40.752Z,50
2023-03-17T08:40:11.577Z,50
2023-03-17T08:42:42.163Z,50
2023-03-17T08:45:13.023Z,50
2023-03-17T08:47:43.608Z,50
2023-03-17T08:50:14.546Z,49
2023-03-17T08:52:43.867Z,50
2023-03-17T08:55:14.506Z,49
2023-03-17T08:57:46.472Z,49
2023-03-17T09:00:21.008Z,49
2023-03-17T09:02:51.864Z,49
2023-03-17T09:05:22.434Z,49
2023-03-17T09:07:55.252Z,49
2023-03-17T09:10:25.826Z,49
2023-03-17T09:12:57.873Z,48
2023-03-17T09:15:26.841Z,48
2023-03-17T09:17:57.028Z,48
2023-03-17T09:20:27.516Z,48
2023-03-17T09:22:58.125Z,48
2023-03-17T09:25:28.885Z,48
2023-03-17T09:27:59.375Z,48
2023-03-17T09:30:30.389Z,49
2023-03-17T09:33:04.410Z,48
2023-03-17T09:35:35.123Z,48
2023-03-17T09:38:14.294Z,47
2023-03-17T09:40:45.636Z,47
2023-03-17T09:43:21.806Z,48
2023-03-17T09:45:54.951Z,49
2023-03-17T09:48:28.362Z,51
2023-03-17T09:51:00.679Z,48
2023-03-17T09:53:32.452Z,47
2023-03-17T09:56:02.671Z,48
2023-03-17T09:58:32.864Z,47
2023-03-17T10:01:03.057Z,47
2023-03-17T10:03:35.738Z,47
2023-03-17T10:06:06.174Z,48
2023-03-17T10:08:36.493Z,47
2023-03-17T10:11:06.698Z,47
2023-03-17T10:13:37.233Z,47
2023-03-17T10:16:07.893Z,47
2023-03-17T10:18:39.461Z,47
2023-03-17T10:21:18.960Z,47
2023-03-17T10:23:49.345Z,47
2023-03-17T10:26:19.834Z,46
2023-03-17T10:28:50.051Z,45
2023-03-17T10:31:20.196Z,45
2023-03-17T10:33:50.639Z,46
2023-03-17T10:36:21.771Z,46
2023-03-17T10:38:52.950Z,44
2023-03-17T10:41:23.154Z,44
2023-03-17T10:43:53.156Z,44
2023-03-17T10:46:24.145Z,43
2023-03-17T10:48:58.077Z,43
2023-03-17T10:51:31.556Z,43
2023-03-17T10:54:01.971Z,45
2023-03-17T10:56:31.320Z,45
2023-03-17T10:59:01.485Z,44
2023-03-17T11:01:35.765Z,44
2023-03-17T11:04:05.802Z,44
2023-03-17T11:06:36.789Z,42
2023-03-17T11:09:09.738Z,41
2023-03-17T11:11:40.213Z,41
2023-03-17T11:14:09.048Z,40
2023-03-17T11:16:39.331Z,41
2023-03-17T11:19:08.199Z,41
2023-03-17T11:21:38.413Z,41
2023-03-17T11:24:08.794Z,41
2023-03-17T11:26:39.438Z,41
2023-03-17T11:29:10.673Z,41
2023-03-17T11:31:40.380Z,41
2023-03-17T11:34:11.023Z,39
2023-03-17T11:36:41.497Z,38
2023-03-17T11:39:14.134Z,39
2023-03-17T11:41:44.432Z,38
2023-03-17T11:44:19.892Z,38
2023-03-17T11:46:50.513Z,39
2023-03-17T11:49:20.578Z,37
2023-03-17T11:51:55.424Z,37
2023-03-17T11:54:24.643Z,37
2023-03-17T11:56:55.109Z,37
2023-03-17T11:59:26.025Z,39
2023-03-17T12:01:56.331Z,39
2023-03-17T12:04:26.700Z,38
2023-03-17T12:06:59.699Z,38
2023-03-17T12:09:30.916Z,38
2023-03-17T12:12:02.500Z,37
2023-03-17T12:14:33.441Z,38
2023-03-17T12:17:07.067Z,38
2023-03-17T12:19:39.066Z,38
2023-03-17T12:22:12.448Z,38
2023-03-17T12:24:43.839Z,38
2023-03-17T12:27:15.184Z,37
2023-03-17T12:29:45.812Z,38
2023-03-17T12:32:15.806Z,37
2023-03-17T12:34:46.252Z,37
2023-03-17T12:37:16.249Z,36
2023-03-17T12:39:45.546Z,36
2023-03-17T12:42:25.346Z,38
2023-03-17T12:44:58.565Z,37
2023-03-17T12:47:29.533Z,37
2023-03-17T12:50:00.827Z,36
2023-03-17T12:52:32.212Z,36
2023-03-17T12:55:02.830Z,36
2023-03-17T12:57:33.692Z,36
2023-03-17T13:00:07.854Z,36
2023-03-17T13:02:42.318Z,35
2023-03-17T13:05:13.126Z,35
2023-03-17T13:07:47.782Z,36
2023-03-17T13:10:18.624Z,35
2023-03-17T13:12:49.380Z,35
2023-03-17T13:15:20.247Z,34
2023-03-17T13:17:50.900Z,35
2023-03-17T13:20:23.638Z,34
2023-03-17T13:22:59.227Z,34
2023-03-17T13:25:30.059Z,34
2023-03-17T13:27:59.884Z,33
2023-03-17T13:30:33.700Z,33
2023-03-17T13:33:09.994Z,33
2023-03-17T13:35:46.752Z,33
2023-03-17T13:38:20.600Z,33
2023-03-17T13:40:54.299Z,33
2023-03-17T13:43:24.919Z,32
2023-03-17T13:45:56.359Z,32
2023-03-17T13:48:26.658Z,33
2023-03-17T13:51:00.107Z,32
2023-03-17T13:53:30.358Z,32
2023-03-17T13:56:01.563Z,33
2023-03-17T13:58:31.879Z,33
2023-03-17T14:01:02.608Z,32
2023-03-17T14:03:33.500Z,32
2023-03-17T14:06:08.217Z,31
2023-03-17T14:08:40.731Z,32
2023-03-17T14:11:11.216Z,32
2023-03-17T14:13:41.849Z,31
2023-03-17T14:16:15.393Z,32
2023-03-17T14:18:46.205Z,32
2023-03-17T14:21:16.736Z,32
2023-03-17T14:23:51.272Z,31
2023-03-17T14:26:21.997Z,32
2023-03-17T14:28:52.523Z,32
2023-03-17T14:31:22.380Z,32
2023-03-17T14:33:53.245Z,33
2023-03-17T14:36:25.948Z,33
2023-03-17T14:39:00.973Z,33
2023-03-17T14:41:33.808Z,33
2023-03-17T14:44:04.242Z,33
2023-03-17T14:46:34.199Z,33
2023-03-17T14:49:04.269Z,34
2023-03-17T14:51:34.472Z,33
2023-03-17T14:54:04.878Z,33
2023-03-17T14:56:37.363Z,32
2023-03-17T14:59:07.815Z,34
2023-03-17T15:01:37.812Z,32
2023-03-17T15:04:08.923Z,33
2023-03-17T15:06:39.329Z,34
2023-03-17T15:09:09.284Z,34
2023-03-17T15:11:39.785Z,34
2023-03-17T15:14:10.012Z,34
2023-03-17T15:16:40.558Z,34
2023-03-17T15:19:10.731Z,34
2023-03-17T15:21:42.439Z,35
2023-03-17T15:24:14.015Z,35
2023-03-17T15:26:45.544Z,35
2023-03-17T15:29:15.653Z,34
2023-03-17T15:31:46.217Z,34
2023-03-17T15:34:16.970Z,34
2023-03-17T15:36:47.342Z,35
2023-03-17T15:39:17.919Z,36
2023-03-17T15:41:48.419Z,35
2023-03-17T15:44:19.053Z,36
2023-03-17T15:46:49.585Z,36
2023-03-17T15:49:20.383Z,36
2023-03-17T15:51:50.600Z,36
2023-03-17T15:54:21.622Z,35
2023-03-17T15:56:52.073Z,36
2023-03-17T15:59:22.435Z,36
2023-03-17T16:01:53.731Z,36
2023-03-17T16:04:24.199Z,35
2023-03-17T16:06:57.343Z,36
2023-03-17T16:09:30.308Z,36
2023-03-17T16:12:10.288Z,36
2023-03-17T16:14:40.564Z,36
2023-03-17T16:17:10.552Z,36
2023-03-17T16:19:39.398Z,36
2023-03-17T16:22:12.960Z,35
2023-03-17T16:24:47.179Z,37
2023-03-17T16:27:18.885Z,37
2023-03-17T16:29:49.709Z,38
2023-03-17T16:32:20.104Z,37
2023-03-17T16:34:50.289Z,38
2023-03-17T16:37:26.995Z,37
2023-03-17T16:39:57.992Z,39
2023-03-17T16:42:27.904Z,38
2023-03-17T16:44:58.268Z,39
2023-03-17T16:47:29.788Z,38
2023-03-17T16:50:00.086Z,38
2023-03-17T16:52:30.424Z,39
2023-03-17T16:55:03.060Z,39
2023-03-17T16:57:35.203Z,38
2023-03-17T17:00:09.098Z,38
2023-03-17T17:02:40.218Z,38
2023-03-17T17:05:10.339Z,38
2023-03-17T17:07:44.782Z,39
2023-03-17T17:10:14.788Z,39
2023-03-17T17:12:45.217Z,40
2023-03-17T17:15:16.662Z,40
2023-03-17T17:17:48.142Z,40
2023-03-17T17:20:19.177Z,41
2023-03-17T17:22:49.496Z,41
2023-03-17T17:25:19.821Z,40
2023-03-17T17:27:50.296Z,42
2023-03-17T17:30:20.512Z,42
2023-03-17T17:32:50.858Z,40
2023-03-17T17:35:20.745Z,40
2023-03-17T17:37:54.723Z,42
2023-03-17T17:40:25.281Z,42
2023-03-17T17:42:55.472Z,42
2023-03-17T17:45:26.316Z,39
2023-03-17T17:47:57.148Z,39
2023-03-17T17:50:27.652Z,39
2023-03-17T17:53:00.929Z,40
2023-03-17T17:55:39.252Z,41
2023-03-17T17:58:09.351Z,41
2023-03-17T18:00:39.898Z,41
2023-03-17T18:03:19.778Z,42
2023-03-17T18:05:50.041Z,42
2023-03-17T18:08:20.314Z,44
2023-03-17T18:10:52.186Z,44
2023-03-17T18:13:21.225Z,44
2023-03-17T18:15:51.162Z,44
2023-03-17T18:18:22.492Z,44
2023-03-17T18:20:52.807Z,44
2023-03-17T18:23:30.285Z,45
2023-03-17T18:26:01.326Z,45
2023-03-17T18:28:32.278Z,45
2023-03-17T18:31:02.828Z,44
2023-03-17T18:33:33.462Z,44
2023-03-17T18:36:03.840Z,44
2023-03-17T18:38:36.122Z,44
2023-03-17T18:41:06.955Z,45
2023-03-17T18:43:37.417Z,45
2023-03-17T18:46:12.428Z,45
2023-03-17T18:48:47.769Z,45
2023-03-17T18:51:18.691Z,45
2023-03-17T18:53:50.027Z,46
2023-03-17T18:56:21.632Z,46
2023-03-17T18:58:54.663Z,46
2023-03-17T19:01:24.926Z,46
2023-03-17T19:03:55.185Z,46
2023-03-17T19:06:26.659Z,46
2023-03-17T19:08:57.692Z,47
2023-03-17T19:11:28.506Z,47
2023-03-17T19:13:59.787Z,47
2023-03-17T19:16:30.656Z,47
2023-03-17T19:19:02.038Z,47
2023-03-17T19:21:32.852Z,48
2023-03-17T19:24:05.294Z,48
2023-03-17T19:26:35.534Z,48
2023-03-17T19:29:06.880Z,48
2023-03-17T19:31:37.018Z,48
2023-03-17T19:34:07.663Z,48
2023-03-17T19:36:38.553Z,49
2023-03-17T19:39:17.988Z,49
2023-03-17T19:41:48.163Z,49
2023-03-17T19:44:18.476Z,49
2023-03-17T19:46:47.446Z,50
2023-03-17T19:49:17.391Z,50
2023-03-17T19:51:47.876Z,50
2023-03-17T19:54:18.286Z,50
2023-03-17T19:56:48.616Z,50
2023-03-17T19:59:18.961Z,50
2023-03-17T20:01:49.376Z,50
2023-03-17T20:04:19.654Z,51
2023-03-17T20:06:49.798Z,51
2023-03-17T20:09:20.248Z,51
2023-03-17T20:11:50.351Z,51
2023-03-17T20:14:20.686Z,51
2023-03-17T20:16:50.837Z,51
2023-03-17T20:19:21.072Z,51
2023-03-17T20:21:54.232Z,51
2023-03-17T20:24:24.780Z,52
2023-03-17T20:26:54.742Z,52
2023-03-17T20:29:24.974Z,52
2023-03-17T20:31:55.152Z,52
2023-03-17T20:34:25.437Z,52
2023-03-17T20:36:55.576Z,52
2023-03-17T20:39:26.046Z,52
2023-03-17T20:41:56.344Z,52
2023-03-17T20:44:26.373Z,52
2023-03-17T20:46:56.546Z,52
2023-03-17T20:49:26.774Z,52
2023-03-17T20:51:56.892Z,52
2023-03-17T20:54:27.183Z,53
2023-03-17T20:56:58.054Z,53
2023-03-17T20:59:28.948Z,53
2023-03-17T21:01:59.127Z,53
2023-03-17T21:04:29.488Z,53
2023-03-17T21:06:59.441Z,53
2023-03-17T21:09:29.819Z,53
2023-03-17T21:12:00.212Z,53
2023-03-17T21:14:30.153Z,53
2023-03-17T21:17:00.551Z,53
2023-03-17T21:19:31.649Z,53
2023-03-17T21:22:01.911Z,53
2023-03-17T21:24:32.157Z,52
2023-03-17T21:27:02.763Z,53
2023-03-17T21:29:32.891Z,53
2023-03-17T21:32:03.050Z,53
2023-03-17T21:34:33.208Z,53
2023-03-17T21:37:03.592Z,53
2023-03-17T21:39:33.609Z,53
2023-03-17T21:42:03.845Z,53
2023-03-17T21:44:34.485Z,54
2023-03-17T21:47:04.735Z,54
2023-03-17T21:49:35.208Z,54
2023-03-17T21:52:05.252Z,54
2023-03-17T21:54:35.837Z,54
2023-03-17T21:57:06.522Z,54
2023-03-17T21:59:36.792Z,55
2023-03-17T22:02:10.814Z,55
2023-03-17T22:04:40.762Z,54
2023-03-17T22:07:11.540Z,54
2023-03-17T22:09:42.161Z,55
2023-03-17T22:12:13.068Z,55
2023-03-17T22:14:42.948Z,55
2023-03-17T22:17:13.594Z,55
2023-03-17T22:19:43.898Z,55
2023-03-17T22:22:15.779Z,56
2023-03-17T22:24:46.729Z,55
2023-03-17T22:27:17.146Z,55
2023-03-17T22:29:48.056Z,56
2023-03-17T22:32:18.501Z,56
2023-03-17T22:34:48.956Z,56
2023-03-17T22:37:20.625Z,56
2023-03-17T22:39:52.075Z,56
2023-03-17T22:42:22.411Z,56
2023-03-17T22:44:53.162Z,56
2023-03-17T22:47:24.059Z,56
2023-03-17T22:49:54.341Z,56
2023-03-17T22:52:24.273Z,56
2023-03-17T22:54:54.619Z,57
2023-03-17T22:57:26.709Z,57
2023-03-17T22:59:56.869Z,57
2023-03-17T23:02:27.945Z,58
2023-03-17T23:04:58.667Z,57
2023-03-17T23:07:29.244Z,58
2023-03-17T23:10:00.288Z,57
2023-03-17T23:12:30.724Z,58
2023-03-17T23:15:01.727Z,58
2023-03-17T23:17:32.207Z,58
2023-03-17T23:20:02.681Z,58
2023-03-17T23:22:33.509Z,58
2023-03-17T23:25:03.918Z,59
2023-03-17T23:27:34.872Z,58
2023-03-17T23:30:04.862Z,59
2023-03-17T23:32:35.320Z,59
2023-03-17T23:35:05.753Z,59
2023-03-17T23:37:37.374Z,59
2023-03-17T23:40:08.374Z,59
2023-03-17T23:42:39.043Z,59
2023-03-17T23:45:09.680Z,59
2023-03-17T23:47:40.180Z,59
2023-03-17T23:50:10.960Z,59
2023-03-17T23:52:39.796Z,59
2023-03-17T23:55:10.059Z,59
2023-03-17T23:57:40.500Z,59
